sensor_id;sensor_type;location;lat;lon;timestamp;P1;durP1;ratioP1;P2;durP2;ratioP2
76752;SDS011;65687;51.308;16.916;2023-07-09T00:03:02;4.30;;;3.10;;
76752;SDS011;65687;51.308;16.916;2023-07-09T00:08:03;4.40;;;3.50;;
76752;SDS011;65687;51.308;16.916;2023-07-09T00:13:05;6.80;;;3.30;;
76752;SDS011;65687;51.308;16.916;2023-07-09T00:18:07;4.50;;;3.30;;
76752;SDS011;65687;51.308;16.916;2023-07-09T00:23:10;4.30;;;3.40;;
76752;SDS011;65687;51.308;16.916;2023-07-09T00:28:15;4.70;;;3.50;;
76752;SDS011;65687;51.308;16.916;2023-07-09T00:33:18;5.70;;;3.70;;
76752;SDS011;65687;51.308;16.916;2023-07-09T00:38:21;4.80;;;4.10;;
76752;SDS011;65687;51.308;16.916;2023-07-09T00:43:23;4.90;;;4.40;;
76752;SDS011;65687;51.308;16.916;2023-07-09T00:53:29;4.80;;;3.70;;
76752;SDS011;65687;51.308;16.916;2023-07-09T00:58:32;5.40;;;4.40;;
76752;SDS011;65687;51.308;16.916;2023-07-09T01:03:39;4.80;;;4.00;;
76752;SDS011;65687;51.308;16.916;2023-07-09T01:08:45;5.80;;;4.70;;
76752;SDS011;65687;51.308;16.916;2023-07-09T01:13:54;4.20;;;3.80;;
76752;SDS011;65687;51.308;16.916;2023-07-09T01:18:58;4.80;;;3.40;;
76752;SDS011;65687;51.308;16.916;2023-07-09T01:24:47;5.00;;;3.50;;
76752;SDS011;65687;51.308;16.916;2023-07-09T01:29:55;4.80;;;4.00;;
76752;SDS011;65687;51.308;16.916;2023-07-09T01:34:59;4.60;;;3.80;;
76752;SDS011;65687;51.308;16.916;2023-07-09T01:40:06;5.10;;;3.90;;
76752;SDS011;65687;51.308;16.916;2023-07-09T01:45:10;4.20;;;3.70;;
76752;SDS011;65687;51.308;16.916;2023-07-09T01:50:13;5.10;;;3.80;;
76752;SDS011;65687;51.308;16.916;2023-07-09T01:55:16;5.00;;;3.70;;
76752;SDS011;65687;51.308;16.916;2023-07-09T02:05:20;5.80;;;3.50;;
76752;SDS011;65687;51.308;16.916;2023-07-09T02:10:22;4.20;;;3.70;;
76752;SDS011;65687;51.308;16.916;2023-07-09T02:15:24;4.90;;;3.70;;
76752;SDS011;65687;51.308;16.916;2023-07-09T02:20:25;5.10;;;3.60;;
76752;SDS011;65687;51.308;16.916;2023-07-09T02:25:27;4.20;;;3.70;;
76752;SDS011;65687;51.308;16.916;2023-07-09T02:30:29;4.30;;;3.70;;
76752;SDS011;65687;51.308;16.916;2023-07-09T02:35:30;6.10;;;3.80;;
76752;SDS011;65687;51.308;16.916;2023-07-09T02:40:32;4.80;;;3.00;;
76752;SDS011;65687;51.308;16.916;2023-07-09T02:45:35;4.60;;;4.00;;
76752;SDS011;65687;51.308;16.916;2023-07-09T02:50:36;5.70;;;3.80;;
76752;SDS011;65687;51.308;16.916;2023-07-09T02:55:38;4.90;;;3.90;;
76752;SDS011;65687;51.308;16.916;2023-07-09T03:00:39;4.10;;;3.50;;
76752;SDS011;65687;51.308;16.916;2023-07-09T03:05:40;5.30;;;4.20;;
76752;SDS011;65687;51.308;16.916;2023-07-09T03:10:42;4.50;;;3.60;;
76752;SDS011;65687;51.308;16.916;2023-07-09T03:15:43;4.40;;;3.60;;
76752;SDS011;65687;51.308;16.916;2023-07-09T03:20:55;4.90;;;4.10;;
76752;SDS011;65687;51.308;16.916;2023-07-09T03:25:57;5.30;;;4.40;;
76752;SDS011;65687;51.308;16.916;2023-07-09T03:31:00;4.00;;;3.30;;
76752;SDS011;65687;51.308;16.916;2023-07-09T03:36:02;5.10;;;3.80;;
76752;SDS011;65687;51.308;16.916;2023-07-09T03:41:05;4.20;;;3.80;;
76752;SDS011;65687;51.308;16.916;2023-07-09T03:46:07;5.40;;;4.00;;
76752;SDS011;65687;51.308;16.916;2023-07-09T03:51:09;4.90;;;4.20;;
76752;SDS011;65687;51.308;16.916;2023-07-09T03:56:10;7.00;;;4.30;;
76752;SDS011;65687;51.308;16.916;2023-07-09T04:01:12;5.50;;;4.30;;
76752;SDS011;65687;51.308;16.916;2023-07-09T04:06:13;4.90;;;3.80;;
76752;SDS011;65687;51.308;16.916;2023-07-09T04:11:15;7.70;;;5.70;;
76752;SDS011;65687;51.308;16.916;2023-07-09T04:16:17;4.50;;;3.90;;
76752;SDS011;65687;51.308;16.916;2023-07-09T04:21:18;4.70;;;4.10;;
76752;SDS011;65687;51.308;16.916;2023-07-09T04:26:20;5.80;;;4.40;;
76752;SDS011;65687;51.308;16.916;2023-07-09T04:31:21;4.80;;;4.40;;
76752;SDS011;65687;51.308;16.916;2023-07-09T04:36:23;4.80;;;4.20;;
76752;SDS011;65687;51.308;16.916;2023-07-09T04:41:25;4.70;;;3.90;;
76752;SDS011;65687;51.308;16.916;2023-07-09T04:46:26;4.80;;;4.30;;
76752;SDS011;65687;51.308;16.916;2023-07-09T04:51:28;5.30;;;4.00;;
76752;SDS011;65687;51.308;16.916;2023-07-09T04:56:29;7.40;;;4.90;;
76752;SDS011;65687;51.308;16.916;2023-07-09T05:01:31;5.00;;;4.30;;
76752;SDS011;65687;51.308;16.916;2023-07-09T05:06:34;5.80;;;5.10;;
76752;SDS011;65687;51.308;16.916;2023-07-09T05:11:36;5.40;;;4.70;;
76752;SDS011;65687;51.308;16.916;2023-07-09T05:16:37;4.80;;;4.30;;
76752;SDS011;65687;51.308;16.916;2023-07-09T05:21:39;6.40;;;5.10;;
76752;SDS011;65687;51.308;16.916;2023-07-09T05:26:40;4.60;;;4.20;;
76752;SDS011;65687;51.308;16.916;2023-07-09T05:31:42;6.20;;;4.70;;
76752;SDS011;65687;51.308;16.916;2023-07-09T05:36:43;5.30;;;4.20;;
76752;SDS011;65687;51.308;16.916;2023-07-09T05:41:46;5.10;;;4.30;;
76752;SDS011;65687;51.308;16.916;2023-07-09T05:46:47;5.60;;;4.50;;
76752;SDS011;65687;51.308;16.916;2023-07-09T05:51:48;6.50;;;5.30;;
76752;SDS011;65687;51.308;16.916;2023-07-09T05:56:50;5.90;;;4.50;;
76752;SDS011;65687;51.308;16.916;2023-07-09T06:06:53;5.70;;;4.80;;
76752;SDS011;65687;51.308;16.916;2023-07-09T06:11:55;6.00;;;4.90;;
76752;SDS011;65687;51.308;16.916;2023-07-09T06:21:59;8.70;;;5.10;;
76752;SDS011;65687;51.308;16.916;2023-07-09T06:27:00;8.60;;;5.80;;
76752;SDS011;65687;51.308;16.916;2023-07-09T06:32:02;7.50;;;4.80;;
76752;SDS011;65687;51.308;16.916;2023-07-09T06:37:04;6.30;;;5.50;;
76752;SDS011;65687;51.308;16.916;2023-07-09T06:42:06;5.50;;;4.90;;
76752;SDS011;65687;51.308;16.916;2023-07-09T06:47:07;5.50;;;4.80;;
76752;SDS011;65687;51.308;16.916;2023-07-09T06:52:09;6.50;;;5.10;;
76752;SDS011;65687;51.308;16.916;2023-07-09T06:57:11;6.60;;;4.80;;
76752;SDS011;65687;51.308;16.916;2023-07-09T07:02:12;6.40;;;5.60;;
76752;SDS011;65687;51.308;16.916;2023-07-09T07:07:13;8.70;;;7.00;;
76752;SDS011;65687;51.308;16.916;2023-07-09T07:12:26;8.90;;;6.30;;
76752;SDS011;65687;51.308;16.916;2023-07-09T07:17:32;11.00;;;7.20;;
76752;SDS011;65687;51.308;16.916;2023-07-09T07:22:33;8.40;;;7.60;;
76752;SDS011;65687;51.308;16.916;2023-07-09T07:32:38;9.40;;;8.30;;
76752;SDS011;65687;51.308;16.916;2023-07-09T07:37:43;9.20;;;8.00;;
76752;SDS011;65687;51.308;16.916;2023-07-09T07:42:44;9.80;;;8.70;;
76752;SDS011;65687;51.308;16.916;2023-07-09T07:47:47;9.90;;;8.20;;
76752;SDS011;65687;51.308;16.916;2023-07-09T07:57:50;7.10;;;6.30;;
76752;SDS011;65687;51.308;16.916;2023-07-09T08:02:52;6.40;;;5.70;;
76752;SDS011;65687;51.308;16.916;2023-07-09T08:07:53;8.60;;;5.70;;
76752;SDS011;65687;51.308;16.916;2023-07-09T08:17:58;6.10;;;5.60;;
76752;SDS011;65687;51.308;16.916;2023-07-09T08:22:59;7.00;;;5.20;;
76752;SDS011;65687;51.308;16.916;2023-07-09T08:28:01;6.10;;;5.40;;
76752;SDS011;65687;51.308;16.916;2023-07-09T08:33:03;6.00;;;5.50;;
76752;SDS011;65687;51.308;16.916;2023-07-09T08:38:04;5.00;;;4.60;;
76752;SDS011;65687;51.308;16.916;2023-07-09T08:43:10;5.40;;;4.90;;
76752;SDS011;65687;51.308;16.916;2023-07-09T08:48:38;5.00;;;4.50;;
76752;SDS011;65687;51.308;16.916;2023-07-09T08:53:45;8.00;;;5.40;;
76752;SDS011;65687;51.308;16.916;2023-07-09T08:59:02;7.20;;;4.70;;
76752;SDS011;65687;51.308;16.916;2023-07-09T09:04:05;5.30;;;3.90;;
76752;SDS011;65687;51.308;16.916;2023-07-09T09:09:26;5.20;;;4.70;;
76752;SDS011;65687;51.308;16.916;2023-07-09T09:14:38;6.40;;;3.80;;
76752;SDS011;65687;51.308;16.916;2023-07-09T09:19:47;5.00;;;3.70;;
76752;SDS011;65687;51.308;16.916;2023-07-09T09:24:55;5.40;;;4.10;;
76752;SDS011;65687;51.308;16.916;2023-07-09T09:30:04;5.10;;;4.10;;
76752;SDS011;65687;51.308;16.916;2023-07-09T09:35:13;4.70;;;3.90;;
76752;SDS011;65687;51.308;16.916;2023-07-09T09:40:16;4.50;;;3.90;;
76752;SDS011;65687;51.308;16.916;2023-07-09T09:45:27;5.70;;;4.20;;
76752;SDS011;65687;51.308;16.916;2023-07-09T09:50:33;4.60;;;3.70;;
76752;SDS011;65687;51.308;16.916;2023-07-09T09:55:34;4.90;;;3.60;;
76752;SDS011;65687;51.308;16.916;2023-07-09T10:00:36;5.20;;;3.70;;
76752;SDS011;65687;51.308;16.916;2023-07-09T10:05:40;4.20;;;3.80;;
76752;SDS011;65687;51.308;16.916;2023-07-09T10:10:45;4.50;;;3.80;;
76752;SDS011;65687;51.308;16.916;2023-07-09T10:15:51;4.40;;;3.90;;
76752;SDS011;65687;51.308;16.916;2023-07-09T10:26:32;4.40;;;4.00;;
76752;SDS011;65687;51.308;16.916;2023-07-09T10:31:49;6.30;;;4.60;;
76752;SDS011;65687;51.308;16.916;2023-07-09T10:42:11;4.90;;;3.80;;
76752;SDS011;65687;51.308;16.916;2023-07-09T10:48:03;5.10;;;3.70;;
76752;SDS011;65687;51.308;16.916;2023-07-09T10:52:46;5.10;;;4.00;;
76752;SDS011;65687;51.308;16.916;2023-07-09T11:03:03;6.60;;;3.60;;
76752;SDS011;65687;51.308;16.916;2023-07-09T11:08:18;4.80;;;3.80;;
76752;SDS011;65687;51.308;16.916;2023-07-09T11:13:34;4.80;;;3.90;;
76752;SDS011;65687;51.308;16.916;2023-07-09T11:18:40;5.00;;;3.70;;
76752;SDS011;65687;51.308;16.916;2023-07-09T11:28:56;4.40;;;3.60;;
76752;SDS011;65687;51.308;16.916;2023-07-09T11:39:17;4.00;;;3.30;;
76752;SDS011;65687;51.308;16.916;2023-07-09T11:44:29;4.80;;;4.30;;
76752;SDS011;65687;51.308;16.916;2023-07-09T11:49:39;4.70;;;3.80;;
76752;SDS011;65687;51.308;16.916;2023-07-09T11:55:02;4.60;;;3.60;;
76752;SDS011;65687;51.308;16.916;2023-07-09T12:00:40;6.30;;;3.80;;
76752;SDS011;65687;51.308;16.916;2023-07-09T12:05:49;4.50;;;3.50;;
76752;SDS011;65687;51.308;16.916;2023-07-09T12:10:53;5.00;;;3.40;;
76752;SDS011;65687;51.308;16.916;2023-07-09T12:15:55;4.80;;;3.50;;
76752;SDS011;65687;51.308;16.916;2023-07-09T12:20:56;3.80;;;3.40;;
76752;SDS011;65687;51.308;16.916;2023-07-09T12:26:02;5.30;;;3.70;;
76752;SDS011;65687;51.308;16.916;2023-07-09T12:31:10;4.20;;;3.80;;
76752;SDS011;65687;51.308;16.916;2023-07-09T12:36:14;4.30;;;3.80;;
76752;SDS011;65687;51.308;16.916;2023-07-09T12:41:19;4.20;;;3.20;;
76752;SDS011;65687;51.308;16.916;2023-07-09T12:46:23;4.70;;;3.70;;
76752;SDS011;65687;51.308;16.916;2023-07-09T12:51:28;4.40;;;3.70;;
76752;SDS011;65687;51.308;16.916;2023-07-09T12:56:30;5.30;;;3.50;;
76752;SDS011;65687;51.308;16.916;2023-07-09T13:01:35;4.40;;;3.30;;
76752;SDS011;65687;51.308;16.916;2023-07-09T13:06:38;4.00;;;3.60;;
76752;SDS011;65687;51.308;16.916;2023-07-09T13:11:40;4.90;;;3.40;;
76752;SDS011;65687;51.308;16.916;2023-07-09T13:16:41;3.80;;;3.40;;
76752;SDS011;65687;51.308;16.916;2023-07-09T13:21:43;5.20;;;3.90;;
76752;SDS011;65687;51.308;16.916;2023-07-09T13:26:45;4.60;;;3.30;;
76752;SDS011;65687;51.308;16.916;2023-07-09T13:31:48;4.10;;;3.30;;
76752;SDS011;65687;51.308;16.916;2023-07-09T13:36:50;3.70;;;2.90;;
76752;SDS011;65687;51.308;16.916;2023-07-09T13:41:52;4.40;;;3.70;;
76752;SDS011;65687;51.308;16.916;2023-07-09T13:46:57;4.30;;;3.30;;
76752;SDS011;65687;51.308;16.916;2023-07-09T13:51:59;3.60;;;3.10;;
76752;SDS011;65687;51.308;16.916;2023-07-09T13:57:02;4.90;;;3.30;;
76752;SDS011;65687;51.308;16.916;2023-07-09T14:02:07;4.80;;;3.20;;
76752;SDS011;65687;51.308;16.916;2023-07-09T14:07:27;3.50;;;3.10;;
76752;SDS011;65687;51.308;16.916;2023-07-09T14:12:34;3.90;;;3.20;;
76752;SDS011;65687;51.308;16.916;2023-07-09T14:17:38;4.70;;;3.50;;
76752;SDS011;65687;51.308;16.916;2023-07-09T14:22:40;4.40;;;3.50;;
76752;SDS011;65687;51.308;16.916;2023-07-09T14:27:44;4.60;;;3.60;;
76752;SDS011;65687;51.308;16.916;2023-07-09T14:32:46;4.40;;;3.40;;
76752;SDS011;65687;51.308;16.916;2023-07-09T14:37:50;4.20;;;3.30;;
76752;SDS011;65687;51.308;16.916;2023-07-09T14:42:54;4.30;;;3.30;;
76752;SDS011;65687;51.308;16.916;2023-07-09T14:47:56;5.10;;;3.80;;
76752;SDS011;65687;51.308;16.916;2023-07-09T14:52:58;4.90;;;4.00;;
76752;SDS011;65687;51.308;16.916;2023-07-09T14:57:59;5.80;;;4.60;;
76752;SDS011;65687;51.308;16.916;2023-07-09T15:03:02;6.30;;;4.90;;
76752;SDS011;65687;51.308;16.916;2023-07-09T15:08:10;5.90;;;4.70;;
76752;SDS011;65687;51.308;16.916;2023-07-09T15:13:19;5.00;;;4.00;;
76752;SDS011;65687;51.308;16.916;2023-07-09T15:18:20;5.70;;;4.70;;
76752;SDS011;65687;51.308;16.916;2023-07-09T15:23:22;5.90;;;4.00;;
76752;SDS011;65687;51.308;16.916;2023-07-09T15:28:24;4.10;;;3.30;;
76752;SDS011;65687;51.308;16.916;2023-07-09T15:33:25;4.80;;;3.50;;
76752;SDS011;65687;51.308;16.916;2023-07-09T15:38:28;6.10;;;3.10;;
76752;SDS011;65687;51.308;16.916;2023-07-09T15:43:32;4.40;;;3.10;;
76752;SDS011;65687;51.308;16.916;2023-07-09T15:48:34;4.30;;;2.80;;
76752;SDS011;65687;51.308;16.916;2023-07-09T15:53:38;4.60;;;3.00;;
76752;SDS011;65687;51.308;16.916;2023-07-09T15:58:41;3.90;;;2.90;;
76752;SDS011;65687;51.308;16.916;2023-07-09T16:03:49;4.30;;;3.10;;
76752;SDS011;65687;51.308;16.916;2023-07-09T16:08:52;3.80;;;2.90;;
76752;SDS011;65687;51.308;16.916;2023-07-09T16:13:53;4.40;;;2.80;;
76752;SDS011;65687;51.308;16.916;2023-07-09T16:18:55;4.00;;;3.00;;
76752;SDS011;65687;51.308;16.916;2023-07-09T16:23:57;4.40;;;3.10;;
76752;SDS011;65687;51.308;16.916;2023-07-09T16:29:04;3.70;;;2.90;;
76752;SDS011;65687;51.308;16.916;2023-07-09T16:34:14;4.40;;;3.20;;
76752;SDS011;65687;51.308;16.916;2023-07-09T16:39:21;4.10;;;3.10;;
76752;SDS011;65687;51.308;16.916;2023-07-09T16:44:25;4.50;;;2.80;;
76752;SDS011;65687;51.308;16.916;2023-07-09T16:54:29;4.50;;;2.90;;
76752;SDS011;65687;51.308;16.916;2023-07-09T16:59:31;3.80;;;3.30;;
76752;SDS011;65687;51.308;16.916;2023-07-09T17:04:32;3.60;;;3.10;;
76752;SDS011;65687;51.308;16.916;2023-07-09T17:09:34;3.40;;;2.90;;
76752;SDS011;65687;51.308;16.916;2023-07-09T17:14:36;3.80;;;2.80;;
76752;SDS011;65687;51.308;16.916;2023-07-09T17:19:39;3.40;;;2.90;;
76752;SDS011;65687;51.308;16.916;2023-07-09T17:24:41;4.00;;;3.20;;
76752;SDS011;65687;51.308;16.916;2023-07-09T17:29:43;3.30;;;2.80;;
76752;SDS011;65687;51.308;16.916;2023-07-09T17:34:45;3.90;;;3.30;;
76752;SDS011;65687;51.308;16.916;2023-07-09T17:39:46;4.70;;;3.10;;
76752;SDS011;65687;51.308;16.916;2023-07-09T17:44:47;3.80;;;2.80;;
76752;SDS011;65687;51.308;16.916;2023-07-09T17:49:49;4.70;;;2.90;;
76752;SDS011;65687;51.308;16.916;2023-07-09T17:54:51;3.10;;;2.70;;
76752;SDS011;65687;51.308;16.916;2023-07-09T17:59:52;4.00;;;2.80;;
76752;SDS011;65687;51.308;16.916;2023-07-09T18:04:54;5.30;;;3.10;;
76752;SDS011;65687;51.308;16.916;2023-07-09T18:09:57;3.50;;;3.00;;
76752;SDS011;65687;51.308;16.916;2023-07-09T18:14:59;3.50;;;2.80;;
76752;SDS011;65687;51.308;16.916;2023-07-09T18:20:01;4.30;;;2.80;;
76752;SDS011;65687;51.308;16.916;2023-07-09T18:25:03;3.40;;;2.80;;
76752;SDS011;65687;51.308;16.916;2023-07-09T18:30:09;4.50;;;2.80;;
76752;SDS011;65687;51.308;16.916;2023-07-09T18:40:36;3.90;;;2.90;;
76752;SDS011;65687;51.308;16.916;2023-07-09T18:45:40;3.90;;;3.10;;
76752;SDS011;65687;51.308;16.916;2023-07-09T18:50:42;3.80;;;3.40;;
76752;SDS011;65687;51.308;16.916;2023-07-09T18:55:44;5.00;;;4.30;;
76752;SDS011;65687;51.308;16.916;2023-07-09T19:00:45;6.80;;;5.00;;
76752;SDS011;65687;51.308;16.916;2023-07-09T19:05:47;6.00;;;4.90;;
76752;SDS011;65687;51.308;16.916;2023-07-09T19:15:52;5.10;;;4.10;;
76752;SDS011;65687;51.308;16.916;2023-07-09T19:20:55;5.20;;;4.10;;
76752;SDS011;65687;51.308;16.916;2023-07-09T19:25:57;5.60;;;4.20;;
76752;SDS011;65687;51.308;16.916;2023-07-09T19:36:00;5.10;;;4.30;;
76752;SDS011;65687;51.308;16.916;2023-07-09T19:41:02;4.40;;;3.40;;
76752;SDS011;65687;51.308;16.916;2023-07-09T19:51:05;4.20;;;3.20;;
76752;SDS011;65687;51.308;16.916;2023-07-09T20:01:14;5.10;;;2.90;;
76752;SDS011;65687;51.308;16.916;2023-07-09T20:06:15;3.80;;;2.80;;
76752;SDS011;65687;51.308;16.916;2023-07-09T20:11:17;3.10;;;2.50;;
76752;SDS011;65687;51.308;16.916;2023-07-09T20:16:23;2.90;;;2.40;;
76752;SDS011;65687;51.308;16.916;2023-07-09T20:21:26;3.80;;;3.00;;
76752;SDS011;65687;51.308;16.916;2023-07-09T20:26:28;3.50;;;3.00;;
76752;SDS011;65687;51.308;16.916;2023-07-09T20:31:30;4.30;;;2.90;;
76752;SDS011;65687;51.308;16.916;2023-07-09T20:36:32;5.60;;;2.70;;
76752;SDS011;65687;51.308;16.916;2023-07-09T20:41:33;4.80;;;2.80;;
76752;SDS011;65687;51.308;16.916;2023-07-09T20:46:35;3.10;;;2.60;;
76752;SDS011;65687;51.308;16.916;2023-07-09T20:51:37;3.40;;;2.90;;
76752;SDS011;65687;51.308;16.916;2023-07-09T20:56:39;4.30;;;2.60;;
76752;SDS011;65687;51.308;16.916;2023-07-09T21:01:41;4.70;;;2.90;;
76752;SDS011;65687;51.308;16.916;2023-07-09T21:06:44;4.50;;;2.60;;
76752;SDS011;65687;51.308;16.916;2023-07-09T21:11:47;3.70;;;2.50;;
76752;SDS011;65687;51.308;16.916;2023-07-09T21:16:54;3.80;;;2.60;;
76752;SDS011;65687;51.308;16.916;2023-07-09T21:21:58;3.40;;;2.50;;
76752;SDS011;65687;51.308;16.916;2023-07-09T21:27:00;4.70;;;2.80;;
76752;SDS011;65687;51.308;16.916;2023-07-09T21:32:05;4.50;;;2.60;;
76752;SDS011;65687;51.308;16.916;2023-07-09T21:37:15;4.20;;;2.50;;
76752;SDS011;65687;51.308;16.916;2023-07-09T21:42:19;3.50;;;2.20;;
76752;SDS011;65687;51.308;16.916;2023-07-09T21:47:20;2.60;;;2.00;;
76752;SDS011;65687;51.308;16.916;2023-07-09T21:52:22;3.80;;;2.30;;
76752;SDS011;65687;51.308;16.916;2023-07-09T21:57:24;3.10;;;2.00;;
76752;SDS011;65687;51.308;16.916;2023-07-09T22:02:25;3.10;;;2.10;;
76752;SDS011;65687;51.308;16.916;2023-07-09T22:07:30;4.30;;;2.50;;
76752;SDS011;65687;51.308;16.916;2023-07-09T22:12:32;4.10;;;2.60;;
76752;SDS011;65687;51.308;16.916;2023-07-09T22:17:34;3.10;;;2.30;;
76752;SDS011;65687;51.308;16.916;2023-07-09T22:22:35;2.80;;;1.80;;
76752;SDS011;65687;51.308;16.916;2023-07-09T22:27:37;3.70;;;2.10;;
76752;SDS011;65687;51.308;16.916;2023-07-09T22:32:39;3.80;;;2.50;;
76752;SDS011;65687;51.308;16.916;2023-07-09T22:37:41;3.30;;;2.10;;
76752;SDS011;65687;51.308;16.916;2023-07-09T22:42:45;3.50;;;2.20;;
76752;SDS011;65687;51.308;16.916;2023-07-09T22:47:50;3.70;;;2.30;;
76752;SDS011;65687;51.308;16.916;2023-07-09T22:52:54;3.00;;;2.50;;
76752;SDS011;65687;51.308;16.916;2023-07-09T22:57:57;2.80;;;2.00;;
76752;SDS011;65687;51.308;16.916;2023-07-09T23:03:01;3.70;;;2.10;;
76752;SDS011;65687;51.308;16.916;2023-07-09T23:08:15;3.70;;;2.00;;
76752;SDS011;65687;51.308;16.916;2023-07-09T23:13:21;3.00;;;2.20;;
76752;SDS011;65687;51.308;16.916;2023-07-09T23:18:26;3.30;;;2.00;;
76752;SDS011;65687;51.308;16.916;2023-07-09T23:23:29;3.00;;;2.20;;
76752;SDS011;65687;51.308;16.916;2023-07-09T23:28:30;4.50;;;2.30;;
76752;SDS011;65687;51.308;16.916;2023-07-09T23:33:33;4.00;;;2.10;;
76752;SDS011;65687;51.308;16.916;2023-07-09T23:38:39;4.20;;;2.20;;
76752;SDS011;65687;51.308;16.916;2023-07-09T23:43:40;3.10;;;2.20;;
76752;SDS011;65687;51.308;16.916;2023-07-09T23:48:43;4.00;;;2.40;;
76752;SDS011;65687;51.308;16.916;2023-07-09T23:53:46;3.30;;;2.00;;
76752;SDS011;65687;51.308;16.916;2023-07-09T23:58:47;3.40;;;2.30;;
